Time;durP1;ratioP1;P1;durP2;ratioP2;P2;SDS_P1;SDS_P2;PMS_P1;PMS_P2;Temp;Humidity;BMP_temperature;BMP_pressure;BME280_temperature;BME280_humidity;BME280_pressure;Samples;Min_cycle;Max_cycle;Signal;HPM_P1;HPM_P2
2023/03/06 00:00:58;;;;;;;31.40;12.80;;;;;;;15.92;23.35;98981.02;108129;1254;63816;-69
2023/03/06 00:03:26;;;;;;;33.30;13.20;;;;;;;15.91;23.36;98976.12;108158;1252;60214;-65
2023/03/06 00:05:57;;;;;;;30.90;11.60;;;;;;;16.25;22.97;98980.57;108188;1253;74150;-66
2023/03/06 00:08:26;;;;;;;31.00;11.60;;;;;;;16.24;22.94;98975.33;108153;1252;69705;-66
2023/03/06 00:10:59;;;;;;;27.90;10.90;;;;;;;15.91;23.33;98977.61;108165;1254;72850;-66
2023/03/06 00:13:33;;;;;;;26.90;10.60;;;;;;;16.09;23.16;98973.69;108175;1254;61604;-66
2023/03/06 00:16:05;;;;;;;27.90;11.00;;;;;;;15.65;23.62;98970.88;108168;1253;60451;-66
2023/03/06 00:18:34;;;;;;;26.30;10.70;;;;;;;15.62;23.60;98967.52;108200;1253;72739;-65
2023/03/06 00:21:09;;;;;;;28.20;11.50;;;;;;;15.56;23.86;98965.75;108154;1253;70503;-67
2023/03/06 00:23:40;;;;;;;30.00;11.20;;;;;;;15.54;23.88;98967.09;108170;1254;73881;-66
2023/03/06 00:26:08;;;;;;;27.60;10.80;;;;;;;15.31;24.07;98970.27;108118;1254;61575;-66
2023/03/06 00:28:38;;;;;;;23.40;11.30;;;;;;;15.17;24.31;98970.94;108196;1253;61308;-67
2023/03/06 00:31:14;;;;;;;22.40;10.20;;;;;;;15.19;24.26;98970.41;108161;1254;74002;-67
2023/03/06 00:33:44;;;;;;;26.20;11.50;;;;;;;15.23;24.26;98974.36;108050;1254;69354;-67
2023/03/06 00:36:13;;;;;;;22.60;10.20;;;;;;;15.81;23.80;98972.73;108205;1254;73893;-66
2023/03/06 00:38:41;;;;;;;20.00;9.10;;;;;;;15.68;23.83;98973.27;108196;1254;62051;-66
2023/03/06 00:41:09;;;;;;;23.70;10.00;;;;;;;15.49;24.08;98980.94;108162;1254;59509;-66
2023/03/06 00:43:39;;;;;;;22.20;9.90;;;;;;;15.55;24.08;98977.84;108057;1254;72148;-66
2023/03/06 00:46:08;;;;;;;25.20;9.30;;;;;;;15.44;24.25;98976.57;108142;1254;70262;-67
2023/03/06 00:48:37;;;;;;;21.80;10.10;;;;;;;15.37;24.42;98977.45;108231;1252;72966;-66
2023/03/06 00:51:06;;;;;;;22.20;9.40;;;;;;;15.60;24.25;98976.06;108218;1253;61606;-65
2023/03/06 00:53:34;;;;;;;20.40;8.80;;;;;;;15.50;24.23;98975.71;108228;1254;59826;-66
2023/03/06 00:56:03;;;;;;;22.00;10.10;;;;;;;15.76;24.17;98970.46;108033;1254;73936;-67
2023/03/06 00:58:32;;;;;;;22.20;8.90;;;;;;;15.91;24.02;98971.20;108362;1254;71035;-66
2023/03/06 01:01:00;;;;;;;25.90;10.40;;;;;;;15.69;24.20;98975.65;108210;1254;73927;-67
2023/03/06 01:03:29;;;;;;;26.40;10.30;;;;;;;15.91;24.13;98978.45;108325;1254;61744;-66
2023/03/06 01:05:59;;;;;;;29.00;11.00;;;;;;;15.65;24.36;98983.63;108212;1253;59300;-66
2023/03/06 01:08:27;;;;;;;31.40;11.60;;;;;;;15.49;24.59;98987.45;108191;1253;73408;-66
2023/03/06 01:10:57;;;;;;;28.50;9.80;;;;;;;15.37;24.90;98986.75;108237;1254;70556;-66
2023/03/06 01:13:25;;;;;;;25.80;10.50;;;;;;;15.17;25.33;98988.27;108187;1253;71441;-67
2023/03/06 01:16:07;;;;;;;28.20;10.80;;;;;;;15.45;25.13;98988.70;108179;1253;60394;-66
2023/03/06 01:18:36;;;;;;;26.10;10.90;;;;;;;15.82;24.80;98984.59;108201;1253;61434;-66
2023/03/06 01:21:05;;;;;;;21.30;9.90;;;;;;;15.75;25.08;98987.33;108282;1253;72846;-66
2023/03/06 01:23:35;;;;;;;;;;;;;;;15.99;25.07;98985.64;108283;1254;70200;-66
2023/03/06 01:26:03;;;;;;;18.60;8.50;;;;;;;15.99;25.25;98984.59;108228;1253;73766;-68
2023/03/06 01:28:33;;;;;;;20.10;8.90;;;;;;;15.95;25.35;98983.78;108054;1252;60185;-65
2023/03/06 01:31:03;;;;;;;19.50;8.30;;;;;;;15.78;25.67;98983.75;108138;1254;59359;-67
2023/03/06 01:33:31;;;;;;;22.00;8.30;;;;;;;15.59;26.08;98982.80;108199;1253;73292;-66
2023/03/06 01:36:02;;;;;;;18.50;7.60;;;;;;;15.79;26.10;98978.33;108212;1253;71446;-67
2023/03/06 01:38:31;;;;;;;19.80;7.80;;;;;;;15.49;26.65;98975.81;108081;1253;72867;-65
2023/03/06 01:41:02;;;;;;;25.90;7.80;;;;;;;15.62;26.66;98970.40;108168;1253;61790;-67
2023/03/06 01:43:35;;;;;;;17.10;7.90;;;;;;;15.76;26.63;98970.60;108180;1253;61892;-66
2023/03/06 01:46:22;;;;;;;18.50;7.90;;;;;;;15.73;26.98;98965.48;108068;1254;74015;-66
2023/03/06 01:49:15;;;;;;;16.80;7.40;;;;;;;15.90;26.83;98962.45;108036;1254;70467;-66
2023/03/06 01:51:46;;;;;;;16.70;7.40;;;;;;;16.14;26.74;98958.63;107922;1254;73473;-66
2023/03/06 01:54:19;;;;;;;14.30;7.30;;;;;;;16.19;26.69;98953.30;108235;1252;59653;-66
2023/03/06 01:56:48;;;;;;;16.40;7.60;;;;;;;16.24;26.68;98952.15;108269;1253;60241;-66
2023/03/06 01:59:16;;;;;;;15.20;6.70;;;;;;;16.45;26.33;98952.05;108077;1253;73690;-66
2023/03/06 02:01:44;;;;;;;16.20;7.70;;;;;;;16.43;26.56;98950.16;108352;1253;71352;-66
2023/03/06 02:04:15;;;;;;;18.90;6.80;;;;;;;16.34;26.86;98949.22;108026;1254;73765;-66
2023/03/06 02:06:43;;;;;;;19.60;7.40;;;;;;;16.42;26.73;98948.08;108325;1252;60268;-66
2023/03/06 02:09:11;;;;;;;17.50;6.90;;;;;;;16.34;26.81;98950.52;108279;1253;61368;-66
2023/03/06 02:11:49;;;;;;;17.00;7.60;;;;;;;16.67;26.56;98949.07;108146;1253;73284;-66
2023/03/06 02:14:17;;;;;;;13.60;6.70;;;;;;;16.70;26.74;98948.33;108308;1253;69956;-64
2023/03/06 02:16:48;;;;;;;16.20;6.60;;;;;;;16.52;27.07;98943.73;108385;1253;73850;-65
2023/03/06 02:19:29;;;;;;;15.00;6.40;;;;;;;16.46;27.08;98945.46;108177;1254;61588;-66
2023/03/06 02:21:57;;;;;;;13.70;6.70;;;;;;;16.29;27.38;98944.89;108187;1253;60351;-67
2023/03/06 02:24:45;;;;;;;16.00;6.60;;;;;;;16.33;27.40;98941.35;108048;1254;74121;-66
2023/03/06 02:27:13;;;;;;;18.30;7.20;;;;;;;16.60;27.18;98940.27;108267;1253;69460;-67
2023/03/06 02:29:42;;;;;;;15.00;6.60;;;;;;;16.59;27.22;98939.98;108206;1254;72222;-64
2023/03/06 02:32:10;;;;;;;12.30;5.70;;;;;;;16.47;27.47;98940.97;108420;1253;61751;-66
2023/03/06 02:34:38;;;;;;;13.90;5.50;;;;;;;16.16;28.06;98939.52;108465;1253;61250;-66
2023/03/06 02:37:08;;;;;;;20.90;6.00;;;;;;;16.12;28.10;98942.33;108323;1253;72963;-69
2023/03/06 02:39:39;;;;;;;15.20;5.50;;;;;;;16.66;27.49;98937.45;108246;1254;70693;-67
2023/03/06 02:42:07;;;;;;;10.20;5.60;;;;;;;16.79;27.30;98941.91;108315;1253;73936;-66
2023/03/06 02:44:35;;;;;;;12.20;5.60;;;;;;;16.89;27.13;98939.33;108377;1254;59900;-68
2023/03/06 02:47:06;;;;;;;13.80;5.40;;;;;;;17.10;26.99;98942.34;108177;1252;60549;-66
2023/03/06 02:49:34;;;;;;;12.60;5.80;;;;;;;17.25;26.82;98939.71;108156;1256;73237;-67
2023/03/06 02:52:03;;;;;;;12.50;5.30;;;;;;;17.46;26.56;98935.85;108330;1256;69239;-66
2023/03/06 02:54:31;;;;;;;15.70;5.90;;;;;;;17.29;26.64;98939.77;108105;1257;73235;-66
2023/03/06 02:56:59;;;;;;;14.60;5.70;;;;;;;17.22;26.73;98939.23;108299;1252;62413;-67
2023/03/06 02:59:27;;;;;;;12.20;5.80;;;;;;;17.27;26.77;98938.47;108432;1252;61178;-67
2023/03/06 03:01:56;;;;;;;12.90;5.90;;;;;;;17.51;26.45;98935.45;108253;1252;73342;-64
2023/03/06 03:04:25;;;;;;;13.40;5.40;;;;;;;17.20;26.71;98938.19;108205;1252;71386;-64
2023/03/06 03:06:56;;;;;;;;;;;;;;;17.11;26.91;98935.77;108255;1254;71961;-67
2023/03/06 03:09:25;;;;;;;11.90;5.40;;;;;;;16.88;27.21;98933.73;108187;1253;60807;-67
2023/03/06 03:11:53;;;;;;;13.30;5.60;;;;;;;16.56;27.69;98932.64;108286;1252;61652;-67
2023/03/06 03:14:23;;;;;;;12.10;5.80;;;;;;;16.69;27.54;98932.09;108193;1254;71614;-65
2023/03/06 03:16:51;;;;;;;12.00;5.20;;;;;;;16.82;27.33;98933.70;108311;1252;71660;-67
2023/03/06 03:19:23;;;;;;;12.20;5.50;;;;;;;16.83;27.43;98936.81;108300;1254;74036;-66
2023/03/06 03:21:51;;;;;;;11.80;5.90;;;;;;;16.65;27.71;98938.82;108228;1254;61187;-66
2023/03/06 03:24:25;;;;;;;13.50;5.70;;;;;;;16.74;27.61;98934.66;108295;1253;61520;-67
2023/03/06 03:26:54;;;;;;;12.80;5.70;;;;;;;16.63;27.68;98937.36;108392;1252;73701;-66
2023/03/06 03:29:23;;;;;;;12.90;5.70;;;;;;;16.42;27.94;98937.46;108244;1253;71359;-66
2023/03/06 03:31:53;;;;;;;11.90;5.90;;;;;;;16.84;27.57;98934.05;108235;1253;73010;-66
2023/03/06 03:34:24;;;;;;;12.70;5.70;;;;;;;16.98;27.43;98934.34;108264;1254;60527;-66
2023/03/06 03:36:53;;;;;;;9.60;5.50;;;;;;;16.71;27.53;98936.05;108078;1252;60155;-66
2023/03/06 03:39:21;;;;;;;13.00;5.80;;;;;;;16.45;27.88;98936.15;108308;1254;74870;-66
2023/03/06 03:41:51;;;;;;;12.50;5.50;;;;;;;16.34;28.10;98937.04;108284;1252;70692;-66
2023/03/06 03:44:20;;;;;;;16.40;6.60;;;;;;;16.58;27.79;98937.94;108278;1253;73875;-67
2023/03/06 03:46:48;;;;;;;12.50;6.20;;;;;;;16.44;27.88;98937.63;108290;1253;61027;-67
2023/03/06 03:49:20;;;;;;;11.80;5.80;;;;;;;16.09;28.39;98941.11;108293;1252;61599;-66
2023/03/06 03:51:52;;;;;;;11.90;5.40;;;;;;;15.88;28.64;98942.92;108147;1253;74800;-67
2023/03/06 03:54:23;;;;;;;12.50;5.60;;;;;;;15.80;28.78;98943.23;108083;1253;71066;-67
2023/03/06 03:56:52;;;;;;;9.40;5.20;;;;;;;15.89;28.69;98942.72;108180;1253;71046;-66
2023/03/06 03:59:24;;;;;;;13.50;5.60;;;;;;;16.01;28.59;98940.34;108424;1254;61450;-67
2023/03/06 04:02:07;;;;;;;14.90;6.30;;;;;;;16.18;28.33;98940.08;108378;1253;61578;-66
2023/03/06 04:04:41;;;;;;;15.20;6.50;;;;;;;16.14;28.42;98942.52;108215;1254;73039;-67
2023/03/06 04:07:09;;;;;;;14.50;6.90;;;;;;;16.53;27.96;98945.60;108213;1253;71373;-65
2023/03/06 04:09:39;;;;;;;13.70;6.10;;;;;;;16.24;28.29;98947.75;108152;1254;72443;-67
2023/03/06 04:12:07;;;;;;;17.30;6.20;;;;;;;16.23;28.31;98947.87;108209;1253;60562;-65
2023/03/06 04:14:36;;;;;;;15.90;6.70;;;;;;;16.55;27.94;98948.45;108279;1253;61354;-66
2023/03/06 04:17:05;;;;;;;12.50;6.00;;;;;;;16.87;27.58;98948.87;108159;1253;74724;-66
2023/03/06 04:19:33;;;;;;;15.50;7.40;;;;;;;16.64;27.81;98947.19;108220;1254;71882;-67
2023/03/06 04:22:02;;;;;;;11.70;6.80;;;;;;;16.77;27.80;98947.05;108277;1254;73504;-66
2023/03/06 04:24:31;;;;;;;17.00;7.70;;;;;;;17.17;27.26;98953.15;108111;1254;61180;-66
2023/03/06 04:27:00;;;;;;;16.20;7.60;;;;;;;16.99;27.47;98950.39;108127;1254;61572;-66
2023/03/06 04:29:28;;;;;;;14.40;8.00;;;;;;;17.01;27.49;98955.92;108107;1253;72896;-66
2023/03/06 04:31:56;;;;;;;23.40;9.90;;;;;;;17.25;27.24;98955.54;108101;1253;71236;-67
2023/03/06 04:34:25;;;;;;;16.70;8.80;;;;;;;17.31;27.13;98958.73;108049;1253;73871;-67
2023/03/06 04:36:55;;;;;;;17.90;9.10;;;;;;;17.09;27.32;98961.27;108033;1259;61657;-66
2023/03/06 04:39:26;;;;;;;18.10;9.80;;;;;;;16.96;27.57;98963.73;108068;1257;60867;-64
2023/03/06 04:42:01;;;;;;;14.90;8.40;;;;;;;16.81;27.79;98964.83;108032;1253;73481;-66
2023/03/06 04:44:29;;;;;;;17.20;9.60;;;;;;;16.92;27.60;98962.33;108074;1253;70237;-66
2023/03/06 04:46:57;;;;;;;19.70;9.80;;;;;;;17.13;27.47;98966.30;108023;1257;72749;-67
2023/03/06 04:49:25;;;;;;;20.50;10.40;;;;;;;17.33;27.26;98972.23;108006;1256;61267;-66
2023/03/06 04:51:53;;;;;;;20.10;9.70;;;;;;;17.44;27.19;98976.83;108106;1253;61597;-67
2023/03/06 04:54:21;;;;;;;17.20;9.40;;;;;;;17.55;27.02;98979.98;108057;1253;74282;-67
2023/03/06 04:56:50;;;;;;;18.40;8.80;;;;;;;17.59;27.03;98977.57;108021;1253;70597;-67
2023/03/06 04:59:18;;;;;;;19.80;9.20;;;;;;;17.55;27.08;98977.02;108024;1253;74458;-67
2023/03/06 05:01:45;;;;;;;18.80;8.70;;;;;;;17.66;26.95;98979.79;108107;1253;60852;-66
2023/03/06 05:04:14;;;;;;;15.00;7.50;;;;;;;17.58;26.99;98986.27;108070;1253;60152;-67
2023/03/06 05:06:43;;;;;;;14.90;8.00;;;;;;;17.66;26.98;98985.42;108184;1252;74683;-67
2023/03/06 05:09:11;;;;;;;14.50;7.50;;;;;;;17.54;27.21;98993.25;108125;1254;69806;-66
2023/03/06 05:11:39;;;;;;;14.70;8.10;;;;;;;17.61;27.11;98992.27;108100;1252;72733;-67
2023/03/06 05:14:07;;;;;;;15.00;7.70;;;;;;;17.91;26.79;98989.95;108191;1253;61168;-66
2023/03/06 05:16:38;;;;;;;19.30;8.90;;;;;;;17.89;26.82;98987.05;108186;1254;61289;-66
2023/03/06 05:19:06;;;;;;;15.70;8.20;;;;;;;17.66;27.04;98996.61;108149;1254;74254;-66
2023/03/06 05:21:34;;;;;;;15.90;8.40;;;;;;;17.63;27.14;98996.70;108210;1252;68495;-66
2023/03/06 05:24:03;;;;;;;15.90;9.30;;;;;;;17.65;27.19;98997.96;108122;1252;74324;-67
2023/03/06 05:26:31;;;;;;;15.60;8.70;;;;;;;17.59;27.30;99004.17;108151;1253;60428;-66
2023/03/06 05:28:59;;;;;;;15.80;7.70;;;;;;;17.31;27.64;99001.19;108149;1254;61517;-66
2023/03/06 05:31:28;;;;;;;13.80;8.30;;;;;;;17.46;27.48;99006.27;108307;1256;73667;-66
2023/03/06 05:33:57;;;;;;;15.20;8.90;;;;;;;17.55;27.27;99009.61;108236;1254;70682;-66
2023/03/06 05:36:25;;;;;;;16.20;9.00;;;;;;;17.59;27.20;99018.33;108229;1254;72520;-66
2023/03/06 05:38:54;;;;;;;15.20;8.80;;;;;;;17.52;27.29;99017.34;108223;1254;60712;-66
2023/03/06 05:41:22;;;;;;;17.80;9.00;;;;;;;17.42;27.36;99018.49;108242;1252;61505;-66
2023/03/06 05:43:52;;;;;;;16.50;8.40;;;;;;;17.61;27.12;99022.58;108255;1254;73367;-66
2023/03/06 05:46:20;;;;;;;14.70;8.40;;;;;;;17.43;27.32;99024.98;108252;1253;71812;-67
2023/03/06 05:48:51;;;;;;;19.10;8.90;;;;;;;17.45;27.36;99020.80;108216;1253;70899;-65
2023/03/06 05:51:19;;;;;;;17.00;9.70;;;;;;;17.51;27.30;99019.17;108264;1253;62083;-66
2023/03/06 05:53:47;;;;;;;19.60;9.30;;;;;;;17.70;27.30;99023.14;108227;1253;61646;-66
2023/03/06 05:56:20;;;;;;;19.00;10.60;;;;;;;18.13;26.92;99017.92;108325;1254;75232;-66
2023/03/06 05:58:49;;;;;;;18.70;10.10;;;;;;;18.37;26.96;99024.36;108239;1254;71538;-66
2023/03/06 06:01:18;;;;;;;21.80;10.90;;;;;;;18.55;27.13;99018.98;108260;1254;73767;-67
2023/03/06 06:03:46;;;;;;;18.30;9.70;;;;;;;18.58;27.06;99019.64;108305;1254;61958;-66
2023/03/06 06:06:14;;;;;;;14.80;8.40;;;;;;;18.11;27.32;99022.88;108329;1252;59753;-67
2023/03/06 06:08:43;;;;;;;19.30;9.60;;;;;;;18.17;26.94;99021.04;108114;1252;75137;-66
2023/03/06 06:11:11;;;;;;;18.50;10.10;;;;;;;18.09;26.92;99019.13;108263;1254;71823;-67
2023/03/06 06:13:44;;;;;;;15.60;7.80;;;;;;;18.34;26.70;99021.23;108212;1254;73895;-66
2023/03/06 06:16:15;;;;;;;17.90;9.60;;;;;;;18.71;26.55;99018.02;108223;1254;61308;-67
2023/03/06 06:18:43;;;;;;;19.00;10.00;;;;;;;18.95;26.57;99013.35;108315;1252;60460;-66
2023/03/06 06:21:17;;;;;;;16.00;8.60;;;;;;;19.76;26.64;99020.23;108230;1253;74517;-66
2023/03/06 06:23:46;;;;;;;16.20;7.90;;;;;;;20.83;25.84;99016.92;108230;1253;71249;-67
2023/03/06 06:26:14;;;;;;;12.70;6.90;;;;;;;21.55;24.60;99029.16;108299;1252;73710;-66
2023/03/06 06:28:42;;;;;;;13.50;7.00;;;;;;;21.88;23.65;99039.61;108235;1254;62110;-66
2023/03/06 06:31:11;;;;;;;18.20;7.00;;;;;;;21.24;23.85;99037.02;108121;1257;60480;-67
2023/03/06 06:33:41;;;;;;;;;;;;;;;20.92;23.88;99041.04;108281;1253;74633;-67
2023/03/06 06:36:14;;;;;;;16.00;6.70;;;;;;;20.67;23.52;99046.34;108206;1254;71083;-67
2023/03/06 06:38:43;;;;;;;13.20;6.00;;;;;;;20.72;23.38;99044.90;108191;1254;73295;-66
2023/03/06 06:41:12;;;;;;;14.60;6.90;;;;;;;20.55;23.60;99052.58;108198;1254;61155;-66
2023/03/06 06:44:00;;;;;;;14.40;7.40;;;;;;;20.21;24.03;99058.30;108194;1253;60692;-67
2023/03/06 06:46:28;;;;;;;12.80;6.50;;;;;;;19.99;24.17;99060.38;108235;1254;73178;-67
2023/03/06 06:49:19;;;;;;;15.70;6.50;;;;;;;19.88;24.26;99065.88;108261;1254;71378;-67
2023/03/06 06:51:47;;;;;;;13.20;6.60;;;;;;;19.72;24.41;99068.23;108294;1256;72937;-67
2023/03/06 06:54:15;;;;;;;14.20;6.50;;;;;;;19.62;24.49;99072.45;108198;1253;61399;-66
2023/03/06 06:56:44;;;;;;;13.80;6.30;;;;;;;19.82;24.13;99072.32;108298;1253;61599;-67
2023/03/06 06:59:12;;;;;;;12.60;6.90;;;;;;;19.60;24.36;99074.25;108227;1253;72256;-67
2023/03/06 07:01:44;;;;;;;14.20;6.70;;;;;;;19.71;24.29;99078.27;108376;1254;70451;-67
2023/03/06 07:04:12;;;;;;;15.70;7.60;;;;;;;19.67;24.32;99082.94;108123;1252;73650;-67
2023/03/06 07:06:41;;;;;;;13.30;7.40;;;;;;;19.32;24.63;99086.36;108302;1252;60424;-66
2023/03/06 07:09:10;;;;;;;14.70;7.40;;;;;;;19.44;24.53;99088.39;108286;1252;61554;-67
2023/03/06 07:11:39;;;;;;;14.50;7.50;;;;;;;19.37;24.66;99091.96;108285;1253;73918;-67
2023/03/06 07:14:07;;;;;;;16.30;7.60;;;;;;;19.05;25.03;99095.38;108137;1254;69812;-67
2023/03/06 07:16:35;;;;;;;15.10;7.90;;;;;;;18.80;25.37;99106.27;108222;1253;73533;-66
2023/03/06 07:19:03;;;;;;;13.00;6.60;;;;;;;18.84;25.34;99100.94;108186;1254;61141;-67
2023/03/06 07:21:32;;;;;;;15.30;6.80;;;;;;;18.68;25.44;99103.95;108209;1252;61297;-66
2023/03/06 07:24:00;;;;;;;13.00;7.10;;;;;;;18.61;25.58;99102.09;108289;1252;75090;-67
2023/03/06 07:26:29;;;;;;;14.60;6.80;;;;;;;18.65;25.58;99103.87;108243;1254;71440;-67
2023/03/06 07:29:02;;;;;;;15.60;7.40;;;;;;;18.80;25.59;99107.40;108294;1254;73232;-66
2023/03/06 07:31:30;;;;;;;12.50;7.50;;;;;;;18.52;25.80;99112.29;108365;1254;62030;-67
2023/03/06 07:33:58;;;;;;;17.30;8.40;;;;;;;18.65;25.62;99112.70;108260;1253;60350;-67
2023/03/06 07:36:27;;;;;;;15.90;7.90;;;;;;;18.66;25.75;99113.73;108330;1256;74050;-67
2023/03/06 07:38:55;;;;;;;14.20;7.40;;;;;;;18.95;25.57;99116.39;108293;1254;70758;-67
2023/03/06 07:41:23;;;;;;;18.30;7.70;;;;;;;19.02;25.48;99116.80;108315;1254;72218;-67
2023/03/06 07:43:52;;;;;;;15.60;7.90;;;;;;;18.85;25.56;99121.17;108296;1252;62080;-67
2023/03/06 07:46:20;;;;;;;15.30;6.90;;;;;;;18.98;25.59;99122.54;108236;1253;61754;-67
2023/03/06 07:48:48;;;;;;;16.80;7.40;;;;;;;19.04;25.60;99117.87;108307;1254;73262;-67
2023/03/06 07:51:17;;;;;;;17.50;7.40;;;;;;;19.38;25.70;99120.36;108360;1253;70131;-68
2023/03/06 07:53:46;;;;;;;12.60;6.60;;;;;;;19.95;25.04;99117.56;108349;1254;71691;-68
2023/03/06 07:56:14;;;;;;;16.20;7.00;;;;;;;20.17;24.78;99122.70;108321;1256;60428;-69
2023/03/06 07:58:43;;;;;;;13.30;7.20;;;;;;;20.11;24.45;99124.78;108312;1253;61122;-69
2023/03/06 08:01:17;;;;;;;12.90;6.90;;;;;;;19.92;24.37;99129.61;108284;1254;73200;-67
2023/03/06 08:03:45;;;;;;;12.10;6.70;;;;;;;19.96;24.17;99134.44;108294;1253;71164;-67
2023/03/06 08:06:18;;;;;;;10.20;6.30;;;;;;;19.77;24.08;99134.48;108131;1254;72044;-68
2023/03/06 08:08:50;;;;;;;14.80;6.80;;;;;;;19.54;24.11;99137.16;108250;1254;62127;-67
2023/03/06 08:11:20;;;;;;;14.90;7.20;;;;;;;19.38;24.32;99142.13;108282;1254;61218;-67
2023/03/06 08:13:51;;;;;;;15.80;6.60;;;;;;;19.78;24.54;99142.79;108219;1254;75039;-67
2023/03/06 08:16:20;;;;;;;12.70;7.20;;;;;;;20.19;24.32;99144.58;108311;1253;71307;-67
2023/03/06 08:18:52;;;;;;;13.60;6.80;;;;;;;20.53;23.85;99147.83;108261;1254;73610;-67
2023/03/06 08:21:22;;;;;;;13.40;6.30;;;;;;;20.66;23.45;99152.71;108250;1253;62216;-67
2023/03/06 08:23:52;;;;;;;15.10;6.90;;;;;;;20.66;23.29;99148.38;108282;1252;61634;-67
2023/03/06 08:26:23;;;;;;;16.20;7.50;;;;;;;20.44;23.48;99153.13;108238;1254;74975;-67
2023/03/06 08:28:51;;;;;;;12.50;6.20;;;;;;;20.16;23.41;99155.33;108292;1253;69421;-69
2023/03/06 08:31:24;;;;;;;13.80;6.90;;;;;;;20.03;23.50;99154.64;108291;1254;72345;-66
2023/03/06 08:33:52;;;;;;;13.30;6.70;;;;;;;20.27;23.38;99154.32;108278;1254;60574;-66
2023/03/06 08:36:21;;;;;;;12.30;5.80;;;;;;;20.71;23.23;99155.59;108222;1256;60280;-67
2023/03/06 08:38:49;;;;;;;11.80;5.80;;;;;;;21.10;23.23;99150.14;108221;1252;74158;-67
2023/03/06 08:41:17;;;;;;;13.00;6.00;;;;;;;21.19;22.87;99151.54;108211;1254;71256;-68
2023/03/06 08:43:48;;;;;;;12.20;6.60;;;;;;;21.39;22.53;99157.16;108298;1252;72150;-67
2023/03/06 08:46:17;;;;;;;9.00;5.40;;;;;;;21.41;21.65;99160.13;108357;1253;60618;-66
2023/03/06 08:48:48;;;;;;;11.20;5.40;;;;;;;21.30;21.36;99167.61;108200;1256;60612;-67
2023/03/06 08:51:16;;;;;;;10.90;5.50;;;;;;;20.97;21.26;99172.92;108329;1254;73737;-66
2023/03/06 08:53:45;;;;;;;12.30;5.70;;;;;;;20.40;21.43;99171.86;108264;1254;71034;-67
2023/03/06 08:56:21;;;;;;;11.60;5.80;;;;;;;20.31;21.73;99177.21;108261;1253;73627;-67
2023/03/06 08:58:49;;;;;;;10.70;5.40;;;;;;;20.20;21.68;99175.65;108243;1254;60559;-66
2023/03/06 09:01:24;;;;;;;10.70;6.00;;;;;;;20.13;22.03;99178.97;108332;1252;60283;-68
2023/03/06 09:04:12;;;;;;;9.90;5.30;;;;;;;19.95;22.11;99182.20;108191;1252;75914;-68
2023/03/06 09:06:44;;;;;;;8.50;5.10;;;;;;;20.03;22.49;99181.87;108264;1254;71551;-67
2023/03/06 09:09:12;;;;;;;10.40;5.20;;;;;;;20.43;22.26;99178.73;108214;1254;73557;-66
2023/03/06 09:11:41;;;;;;;10.40;5.40;;;;;;;20.87;22.16;99181.95;108220;1253;60162;-67
2023/03/06 09:14:10;;;;;;;9.20;5.00;;;;;;;21.09;21.99;99179.48;108027;1254;61221;-67
2023/03/06 09:16:38;;;;;;;11.00;5.70;;;;;;;21.81;21.47;99176.39;108266;1254;74787;-66
2023/03/06 09:19:06;;;;;;;10.40;5.20;;;;;;;22.22;21.06;99175.21;108278;1254;69512;-66
2023/03/06 09:21:34;;;;;;;9.60;5.30;;;;;;;22.08;20.14;99178.80;108229;1253;71779;-67
2023/03/06 09:24:03;;;;;;;11.70;5.60;;;;;;;22.15;20.46;99179.98;108205;1253;60453;-66
2023/03/06 09:26:31;;;;;;;9.70;5.50;;;;;;;22.24;20.33;99182.48;108239;1253;60222;-67
2023/03/06 09:29:14;;;;;;;10.30;4.80;;;;;;;21.47;20.15;99186.33;108335;1254;74739;-67
2023/03/06 09:31:44;;;;;;;8.80;4.80;;;;;;;21.91;20.08;99189.22;108318;1252;70959;-67
2023/03/06 09:34:13;;;;;;;8.30;4.60;;;;;;;22.52;20.00;99190.19;108309;1254;72277;-68
2023/03/06 09:36:45;;;;;;;8.40;4.60;;;;;;;23.00;19.19;99188.75;108066;1254;59676;-67
2023/03/06 09:39:24;;;;;;;7.80;4.60;;;;;;;23.89;18.85;99190.89;108285;1254;61325;-67
2023/03/06 09:41:52;;;;;;;8.20;4.30;;;;;;;24.15;18.24;99191.93;108301;1254;74987;-68
2023/03/06 09:44:22;;;;;;;8.60;4.70;;;;;;;24.76;17.70;99191.19;108213;1254;71560;-68
2023/03/06 09:47:00;;;;;;;;;;;;;;;24.83;17.36;99194.41;108188;1254;72543;-68
2023/03/06 09:49:43;;;;;;;11.40;5.10;;;;;;;24.99;17.19;99192.43;108232;1254;60529;-67
2023/03/06 09:52:29;;;;;;;;;;;;;;;24.85;17.07;99187.76;108250;1254;61032;-68
2023/03/06 09:54:59;;;;;;;10.80;5.50;;;;;;;24.88;17.05;99187.91;108211;1252;74862;-67
2023/03/06 09:57:31;;;;;;;7.60;4.10;;;;;;;24.14;16.56;99190.30;108271;1256;71247;-68
2023/03/06 10:00:03;;;;;;;9.60;4.70;;;;;;;24.03;16.67;99189.37;108237;1254;71623;-68
2023/03/06 10:02:44;;;;;;;8.30;4.70;;;;;;;24.02;16.76;99186.02;108154;1254;60792;-68
2023/03/06 10:05:22;;;;;;;8.80;4.80;;;;;;;23.80;17.06;99190.96;108124;1257;60220;-67
2023/03/06 10:08:00;;;;;;;7.00;4.60;;;;;;;24.21;17.38;99189.76;108125;1252;74922;-68
2023/03/06 10:10:53;;;;;;;8.40;4.40;;;;;;;24.38;16.88;99191.64;108207;1254;70292;-67
2023/03/06 10:13:23;;;;;;;7.30;4.60;;;;;;;24.29;16.78;99192.77;108134;1254;73271;-67
2023/03/06 10:15:52;;;;;;;8.20;4.70;;;;;;;24.57;16.39;99193.41;108286;1253;60427;-67
2023/03/06 10:18:23;;;;;;;7.00;4.10;;;;;;;24.08;16.43;99194.33;108331;1254;60324;-67
2023/03/06 10:23:13;;;;;;;9.10;3.90;;;;;;;19.39;19.42;99203.23;105037;1289;600251;-66
2023/03/06 10:25:46;;;;;;;8.10;4.10;;;;;;;21.00;17.88;99203.73;107978;1257;60683;-67
2023/03/06 10:28:26;;;;;;;8.70;3.80;;;;;;;20.98;17.99;99193.51;107994;1257;61333;-68
2023/03/06 10:31:09;;;;;;;6.10;3.70;;;;;;;20.73;18.25;99196.43;107897;1257;71580;-68
2023/03/06 10:33:45;;;;;;;6.50;3.50;;;;;;;20.86;18.05;99199.33;107926;1257;70610;-67
2023/03/06 10:36:17;;;;;;;10.10;4.30;;;;;;;20.76;18.26;99199.52;107822;1254;215470;-67
2023/03/06 10:38:47;;;;;;;8.00;4.40;;;;;;;20.83;18.22;99199.80;108189;1254;59230;-67
2023/03/06 10:41:25;;;;;;;7.50;3.80;;;;;;;20.75;18.13;99195.02;108172;1254;60077;-66
2023/03/06 10:43:59;;;;;;;8.00;3.90;;;;;;;20.58;18.00;99190.73;108157;1257;73677;-66
2023/03/06 10:46:33;;;;;;;7.80;3.80;;;;;;;20.44;18.09;99190.53;108241;1254;71568;-68
2023/03/06 10:49:07;;;;;;;7.70;4.10;;;;;;;20.33;18.03;99189.29;108086;1254;73792;-67
2023/03/06 10:51:36;;;;;;;7.50;4.00;;;;;;;20.09;18.18;99193.96;108105;1254;59901;-67
2023/03/06 10:54:12;;;;;;;6.90;3.60;;;;;;;20.05;18.20;99193.97;107969;1254;61031;-67
2023/03/06 10:56:45;;;;;;;8.10;3.80;;;;;;;20.62;17.81;99193.02;108114;1254;73685;-66
2023/03/06 10:59:13;;;;;;;7.70;3.60;;;;;;;20.66;17.85;99190.81;108167;1254;71528;-67
2023/03/06 11:01:47;;;;;;;8.20;3.80;;;;;;;20.49;17.70;99191.69;108093;1254;72651;-66
2023/03/06 11:04:34;;;;;;;6.10;3.70;;;;;;;20.62;17.79;99195.68;108130;1254;59539;-67
2023/03/06 11:07:11;;;;;;;6.90;3.50;;;;;;;20.86;17.60;99192.90;108100;1254;59765;-67
2023/03/06 11:09:40;;;;;;;6.50;3.70;;;;;;;21.43;17.34;99186.53;108065;1254;74129;-67
2023/03/06 11:12:20;;;;;;;6.40;3.80;;;;;;;21.93;16.69;99184.39;108025;1254;70546;-67
2023/03/06 11:15:05;;;;;;;5.60;3.40;;;;;;;22.10;16.52;99178.62;108050;1254;73462;-67
2023/03/06 11:17:54;;;;;;;8.60;3.40;;;;;;;21.92;16.20;99182.45;108094;1254;59849;-68
2023/03/06 11:20:31;;;;;;;9.70;3.20;;;;;;;22.02;15.96;99185.27;108079;1255;60337;-67
2023/03/06 11:23:40;;;;;;;7.70;4.00;;;;;;;22.00;15.97;99181.87;108012;1255;74174;-67
2023/03/06 11:26:14;;;;;;;6.90;3.30;;;;;;;21.93;16.13;99180.29;108009;1254;71375;-68
2023/03/06 11:28:47;;;;;;;9.50;3.20;;;;;;;22.56;15.53;99180.35;108013;1254;72128;-67
2023/03/06 11:31:26;;;;;;;8.10;3.10;;;;;;;23.18;15.10;99178.63;107898;1254;60535;-67
2023/03/06 11:34:08;;;;;;;9.00;3.40;;;;;;;23.12;14.55;99185.02;108125;1254;61239;-68
2023/03/06 11:36:54;;;;;;;6.40;3.60;;;;;;;22.37;14.72;99180.11;108055;1254;74405;-67
2023/03/06 11:39:58;;;;;;;7.30;3.20;;;;;;;21.63;15.64;99187.22;108058;1254;71493;-67